Chatfield, Texas
Current Conditions -  °F | °C
As of 7:53 PM on Friday 28 Nov 2014 (Local Time) from KCRS Reporting Station
Clear Clear  
Wind Chill: 58°   Ceiling: Unl
Heat Index: 58°   Visibility: 10mi
Dew Point: 50°   Wind: 9mph
Humidity: 75%   Direction: 160°SSE
Pressure: 30.08"   Gusts: NA
Location:  32.24°N, 96.41°W
Report Text: KCRS 290153Z AUTO 16008KT 10SM CLR 14/10 A3008 RMK AO2 SLP185 T01440100
Loading
Personal Weather Stations






























Interactive Weather Map New forecast layout! Learn more

10-Day Weather Forecast

Advertisements
Track Severe Weather on mobile